Terminal Aerodrome Forecast
Issued by NWS Cleveland, OH

Home | Current Version | Previous Version | Graphics & Text | Print | Product List | Glossary Off
Versions: 1 2 3 4 5 6 7 8 9 10 11 12 13 14 15 16 17 18 19 20 21 22 23 24 25 26 27 28 29 30 31 32 33

000
FTUS41 KCLE 221700
TAFCLE
TAF
KCLE 221722Z 2218/2324 30009KT P6SM OVC035
     FM222200 30008KT P6SM SCT035
     FM230000 27005KT P6SM SKC
     FM230400 VRB03KT P6SM SKC
     FM230800 18005KT P6SM SKC
     FM231400 VRB03KT P6SM SKC=

USA.gov is the U.S. government's official web portal to all federal, state and local government web resources and services.